createdAt,value
2023-01-06T00:01:32.688Z,87.33
2023-01-06T00:04:01.025Z,87.46
2023-01-06T00:06:31.877Z,87.91
2023-01-06T00:09:02.613Z,88.37
2023-01-06T00:11:31.234Z,88.83
2023-01-06T00:13:59.511Z,88.50
2023-01-06T00:16:26.484Z,89.08
2023-01-06T00:18:58.308Z,89.60
2023-01-06T00:21:26.165Z,89.56
2023-01-06T00:23:53.263Z,90.08
2023-01-06T00:26:20.559Z,90.09
2023-01-06T00:28:47.992Z,90.21
2023-01-06T00:31:16.874Z,90.27
2023-01-06T00:33:44.388Z,90.05
2023-01-06T00:36:12.753Z,90.16
2023-01-06T00:38:40.712Z,90.07
2023-01-06T00:41:31.171Z,90.08
2023-01-06T00:43:59.213Z,89.66
2023-01-06T00:46:29.731Z,90.00
2023-01-06T00:49:07.193Z,90.48
2023-01-06T00:51:39.999Z,90.29
2023-01-06T00:54:08.762Z,90.54
2023-01-06T00:56:41.720Z,90.56
2023-01-06T00:59:10.141Z,90.68
2023-01-06T01:01:38.263Z,91.08
2023-01-06T01:04:06.464Z,91.23
2023-01-06T01:06:34.176Z,91.03
2023-01-06T01:09:01.438Z,91.25
2023-01-06T01:11:47.880Z,91.12
2023-01-06T01:14:17.558Z,91.72
2023-01-06T01:16:44.755Z,91.95
2023-01-06T01:19:13.122Z,91.80
2023-01-06T01:21:40.689Z,92.08
2023-01-06T01:24:08.098Z,92.17
2023-01-06T01:26:35.321Z,92.37
2023-01-06T01:29:02.949Z,91.98
2023-01-06T01:31:30.627Z,92.42
2023-01-06T01:33:57.787Z,92.80
2023-01-06T01:36:24.774Z,92.75
2023-01-06T01:38:51.741Z,92.72
2023-01-06T01:41:21.969Z,92.79
2023-01-06T01:43:50.771Z,93.05
2023-01-06T01:46:23.757Z,93.58
2023-01-06T01:48:52.827Z,93.37
2023-01-06T01:51:25.026Z,93.50
2023-01-06T01:53:57.148Z,93.22
2023-01-06T01:56:29.187Z,93.32
2023-01-06T01:59:15.943Z,94.00
2023-01-06T02:01:43.056Z,94.30
2023-01-06T02:04:10.696Z,94.04
2023-01-06T02:06:43.134Z,94.40
2023-01-06T02:09:32.999Z,94.18
2023-01-06T02:12:00.170Z,94.09
2023-01-06T02:14:28.821Z,94.26
2023-01-06T02:17:30.526Z,94.49
2023-01-06T02:20:36.370Z,94.69
2023-01-06T02:23:34.909Z,94.81
2023-01-06T02:26:33.805Z,94.04
2023-01-06T02:29:03.843Z,94.16
2023-01-06T02:31:55.737Z,94.15
2023-01-06T02:34:41.803Z,93.80
2023-01-06T02:37:27.311Z,93.53
2023-01-06T02:40:00.825Z,93.78
2023-01-06T02:42:39.851Z,93.91
2023-01-06T02:45:46.085Z,94.16
2023-01-06T02:48:36.698Z,93.94
2023-01-06T02:51:14.254Z,94.12
2023-01-06T02:53:44.661Z,94.10
2023-01-06T02:56:12.126Z,94.21
2023-01-06T02:58:38.921Z,94.40
2023-01-06T03:01:24.599Z,94.80
2023-01-06T03:03:53.526Z,94.82
2023-01-06T03:06:31.507Z,94.89
2023-01-06T03:09:01.327Z,94.74
2023-01-06T03:11:31.931Z,94.66
2023-01-06T03:14:20.404Z,94.74
2023-01-06T03:16:48.110Z,95.14
2023-01-06T03:19:15.843Z,94.79
2023-01-06T03:21:46.736Z,94.72
2023-01-06T03:24:13.967Z,95.69
2023-01-06T03:26:43.598Z,95.63
2023-01-06T03:29:13.851Z,95.50
2023-01-06T03:32:08.033Z,95.79
2023-01-06T03:35:17.892Z,95.83
2023-01-06T03:37:51.516Z,95.85
2023-01-06T03:40:27.766Z,96.09
2023-01-06T03:43:16.392Z,96.15
2023-01-06T03:45:52.108Z,97.07
2023-01-06T03:48:39.724Z,97.50
2023-01-06T03:51:13.012Z,98.05
2023-01-06T03:54:31.415Z,98.61
2023-01-06T03:57:21.166Z,97.74
2023-01-06T03:59:53.990Z,97.82
2023-01-06T04:02:22.520Z,98.89
2023-01-06T04:05:02.772Z,98.45
2023-01-06T04:07:30.666Z,98.28
2023-01-06T04:09:57.736Z,98.25
2023-01-06T04:12:39.921Z,98.14
2023-01-06T04:15:30.784Z,97.84
2023-01-06T04:17:59.251Z,98.20
2023-01-06T04:20:30.575Z,97.82
2023-01-06T04:23:13.060Z,98.04
2023-01-06T04:25:42.498Z,97.60
2023-01-06T04:28:15.125Z,97.67
2023-01-06T04:30:43.474Z,97.65
2023-01-06T04:33:11.087Z,97.75
2023-01-06T04:35:41.816Z,97.85
2023-01-06T04:38:09.638Z,98.00
2023-01-06T04:40:36.553Z,98.16
2023-01-06T04:43:06.744Z,97.85
2023-01-06T04:45:35.478Z,97.55
2023-01-06T04:48:02.639Z,98.12
2023-01-06T04:50:29.680Z,98.00
2023-01-06T04:52:56.698Z,97.97
2023-01-06T04:55:24.045Z,97.74
2023-01-06T04:57:51.275Z,97.54
2023-01-06T05:00:18.815Z,97.71
2023-01-06T05:02:46.386Z,97.39
2023-01-06T05:05:13.706Z,98.19
2023-01-06T05:07:40.657Z,98.08
2023-01-06T05:10:09.607Z,98.00
2023-01-06T05:12:37.239Z,98.22
2023-01-06T05:15:05.077Z,98.14
2023-01-06T05:17:32.363Z,98.51
2023-01-06T05:19:59.252Z,98.70
2023-01-06T05:22:26.159Z,98.93
2023-01-06T05:24:52.998Z,99.11
2023-01-06T05:27:20.443Z,99.51
2023-01-06T05:29:47.653Z,99.62
2023-01-06T05:32:14.848Z,99.71
2023-01-06T05:34:41.603Z,99.89
2023-01-06T05:37:08.395Z,100.00
2023-01-06T05:39:35.282Z,99.52
2023-01-06T05:42:02.468Z,100.00
2023-01-06T05:44:29.422Z,100.00
2023-01-06T05:46:56.468Z,100.00
2023-01-06T05:49:23.532Z,100.00
2023-01-06T05:51:50.463Z,100.00
2023-01-06T05:54:17.366Z,100.00
2023-01-06T05:56:44.428Z,100.00
2023-01-06T05:59:11.551Z,100.00
2023-01-06T06:01:38.488Z,100.00
2023-01-06T06:04:05.543Z,100.00
2023-01-06T06:06:32.577Z,100.00
2023-01-06T06:08:59.818Z,100.00
2023-01-06T06:11:26.877Z,100.00
2023-01-06T06:13:56.232Z,100.00
2023-01-06T06:16:25.764Z,100.00
2023-01-06T06:18:55.318Z,100.00
2023-01-06T06:21:24.959Z,100.00
2023-01-06T06:23:56.580Z,100.00
2023-01-06T06:26:24.332Z,100.00
2023-01-06T06:28:51.629Z,100.00
2023-01-06T06:31:26.941Z,100.00
2023-01-06T06:33:59.079Z,100.00
2023-01-06T06:36:27.056Z,100.00
2023-01-06T06:38:54.708Z,100.00
2023-01-06T06:41:23.704Z,100.00
2023-01-06T06:43:51.163Z,100.00
2023-01-06T06:46:19.205Z,100.00
2023-01-06T06:48:46.316Z,99.55
2023-01-06T06:51:19.338Z,99.36
2023-01-06T06:53:46.980Z,99.40
2023-01-06T06:56:16.254Z,98.94
2023-01-06T06:58:43.606Z,98.55
2023-01-06T07:01:13.231Z,96.97
2023-01-06T07:03:40.534Z,97.74
2023-01-06T07:06:10.235Z,96.32
2023-01-06T07:08:37.509Z,96.19
2023-01-06T07:11:04.954Z,96.05
2023-01-06T07:13:31.928Z,95.56
2023-01-06T07:15:59.081Z,95.45
2023-01-06T07:18:26.038Z,95.25
2023-01-06T07:20:55.742Z,95.99
2023-01-06T07:23:24.369Z,96.02
2023-01-06T07:25:53.336Z,96.21
2023-01-06T07:28:20.337Z,95.72
2023-01-06T07:30:47.913Z,94.85
2023-01-06T07:33:15.656Z,94.50
2023-01-06T07:35:42.772Z,94.40
2023-01-06T07:38:10.998Z,93.94
2023-01-06T07:40:38.313Z,93.75
2023-01-06T07:43:10.121Z,92.95
2023-01-06T07:45:38.057Z,92.52
2023-01-06T07:48:05.609Z,92.19
2023-01-06T07:50:32.809Z,91.10
2023-01-06T07:53:02.082Z,91.03
2023-01-06T07:55:30.504Z,90.65
2023-01-06T07:57:59.076Z,91.45
2023-01-06T08:00:26.566Z,89.85
2023-01-06T08:02:53.692Z,89.81
2023-01-06T08:05:20.939Z,89.85
2023-01-06T08:07:47.848Z,89.68
2023-01-06T08:10:15.034Z,89.62
2023-01-06T08:12:42.184Z,89.66
2023-01-06T08:15:09.231Z,89.02
2023-01-06T08:17:36.076Z,88.48
2023-01-06T08:20:03.445Z,88.14
2023-01-06T08:22:30.490Z,88.08
2023-01-06T08:24:57.765Z,87.98
2023-01-06T08:27:24.754Z,87.79
2023-01-06T08:29:54.881Z,87.38
2023-01-06T08:32:22.915Z,87.01
2023-01-06T08:34:49.881Z,87.05
2023-01-06T08:37:17.196Z,87.71
2023-01-06T08:39:44.496Z,86.30
2023-01-06T08:42:12.186Z,86.15
2023-01-06T08:44:39.592Z,85.72
2023-01-06T08:47:06.642Z,85.25
2023-01-06T08:49:33.677Z,85.64
2023-01-06T08:52:00.912Z,85.24
2023-01-06T08:54:29.784Z,85.12
2023-01-06T08:56:57.482Z,85.09
2023-01-06T08:59:24.464Z,84.33
2023-01-06T09:01:52.464Z,84.04
2023-01-06T09:04:20.509Z,83.12
2023-01-06T09:06:47.615Z,82.90
2023-01-06T09:09:14.892Z,83.02
2023-01-06T09:11:43.852Z,82.08
2023-01-06T09:14:14.267Z,81.91
2023-01-06T09:16:42.048Z,81.01
2023-01-06T09:19:10.517Z,81.18
2023-01-06T09:21:43.017Z,80.99
2023-01-06T09:24:14.605Z,80.84
2023-01-06T09:26:41.924Z,80.43
2023-01-06T09:29:09.476Z,80.10
2023-01-06T09:31:36.824Z,80.01
2023-01-06T09:34:06.547Z,79.89
2023-01-06T09:36:34.691Z,80.15
2023-01-06T09:39:01.587Z,79.72
2023-01-06T09:41:52.757Z,79.84
2023-01-06T09:44:27.154Z,78.92
2023-01-06T09:46:54.751Z,78.84
2023-01-06T09:49:37.628Z,78.01
2023-01-06T09:52:31.870Z,78.30
2023-01-06T09:55:17.011Z,77.93
2023-01-06T09:58:06.126Z,77.76
2023-01-06T10:00:43.303Z,77.97
2023-01-06T10:03:20.320Z,77.50
2023-01-06T10:05:56.431Z,76.98
2023-01-06T10:08:35.547Z,76.95
2023-01-06T10:11:16.074Z,75.17
2023-01-06T10:13:51.857Z,74.92
2023-01-06T10:16:30.836Z,73.61
2023-01-06T10:19:28.430Z,74.27
2023-01-06T10:22:08.571Z,74.59
2023-01-06T10:24:58.825Z,73.78
2023-01-06T10:27:42.429Z,73.41
2023-01-06T10:30:30.875Z,74.31
2023-01-06T10:33:01.891Z,74.75
2023-01-06T10:35:29.440Z,75.16
2023-01-06T10:37:58.192Z,75.22
2023-01-06T10:40:30.736Z,74.47
2023-01-06T10:43:06.652Z,73.76
2023-01-06T10:45:47.273Z,74.10
2023-01-06T10:48:18.397Z,73.02
2023-01-06T10:50:45.331Z,72.51
2023-01-06T10:53:14.172Z,72.32
2023-01-06T10:55:50.475Z,72.15
2023-01-06T10:58:36.011Z,71.25
2023-01-06T11:01:18.059Z,71.89
2023-01-06T11:03:46.036Z,71.77
2023-01-06T11:06:28.068Z,73.17
2023-01-06T11:08:56.339Z,72.64
2023-01-06T11:11:28.796Z,72.44
2023-01-06T11:13:59.557Z,72.81
2023-01-06T11:16:30.690Z,72.27
2023-01-06T11:19:01.323Z,71.99
2023-01-06T11:21:44.460Z,71.49
2023-01-06T11:24:17.126Z,71.13
2023-01-06T11:26:46.185Z,71.09
2023-01-06T11:29:19.889Z,69.87
2023-01-06T11:31:50.591Z,70.21
2023-01-06T11:34:27.092Z,69.88
2023-01-06T11:36:54.168Z,70.90
2023-01-06T11:39:42.109Z,70.82
2023-01-06T11:42:13.400Z,70.29
2023-01-06T11:44:43.274Z,69.87
2023-01-06T11:47:22.554Z,69.65
2023-01-06T11:49:52.788Z,68.49
2023-01-06T11:52:31.191Z,67.06
2023-01-06T11:55:03.361Z,66.23
2023-01-06T11:57:54.252Z,65.98
2023-01-06T12:00:27.129Z,65.31
2023-01-06T12:03:33.143Z,66.54
2023-01-06T12:06:21.564Z,66.71
2023-01-06T12:08:51.670Z,66.59
2023-01-06T12:11:36.266Z,66.12
2023-01-06T12:14:19.658Z,66.47
2023-01-06T12:16:59.611Z,65.32
2023-01-06T12:19:50.140Z,64.24
2023-01-06T12:22:42.165Z,64.73
2023-01-06T12:25:50.008Z,64.49
2023-01-06T12:28:18.733Z,63.84
2023-01-06T12:31:16.853Z,63.75
2023-01-06T12:34:06.247Z,64.06
2023-01-06T12:36:50.667Z,64.48
2023-01-06T12:39:43.382Z,64.85
2023-01-06T12:42:26.305Z,64.12
2023-01-06T12:45:14.275Z,62.09
2023-01-06T12:47:55.131Z,61.74
2023-01-06T12:50:46.055Z,60.77
2023-01-06T12:53:29.097Z,56.68
2023-01-06T12:56:08.239Z,56.42
2023-01-06T12:58:59.949Z,57.35
2023-01-06T13:01:31.684Z,58.42
2023-01-06T13:04:17.847Z,59.03
2023-01-06T13:06:53.300Z,60.27
2023-01-06T13:09:51.174Z,61.12
2023-01-06T13:12:30.651Z,61.22
2023-01-06T13:15:21.786Z,61.62
2023-01-06T13:17:52.178Z,62.63
2023-01-06T13:20:26.293Z,63.02
2023-01-06T13:23:14.922Z,63.49
2023-01-06T13:26:03.183Z,63.64
2023-01-06T13:28:39.606Z,63.55
2023-01-06T13:31:40.912Z,63.70
2023-01-06T13:34:17.931Z,63.74
2023-01-06T13:36:54.009Z,64.62
2023-01-06T13:39:25.540Z,64.72
2023-01-06T13:41:56.932Z,65.23
2023-01-06T13:44:29.161Z,65.99
2023-01-06T13:47:19.893Z,66.10
2023-01-06T13:49:47.465Z,65.57
2023-01-06T13:52:23.933Z,64.85
2023-01-06T13:54:51.402Z,65.26
2023-01-06T13:57:21.201Z,65.41
2023-01-06T13:59:52.914Z,65.91
2023-01-06T14:02:40.573Z,66.14
2023-01-06T14:05:30.504Z,66.46
2023-01-06T14:08:03.549Z,66.94
2023-01-06T14:10:36.501Z,67.19
2023-01-06T14:13:08.061Z,66.63
2023-01-06T14:15:36.577Z,66.08
2023-01-06T14:18:04.111Z,65.91
2023-01-06T14:20:37.054Z,66.21
2023-01-06T14:23:22.952Z,66.36
2023-01-06T14:25:54.211Z,67.45
2023-01-06T14:28:21.434Z,68.27
2023-01-06T14:30:50.975Z,68.68
2023-01-06T14:33:38.147Z,68.65
2023-01-06T14:36:18.254Z,68.93
2023-01-06T14:38:49.639Z,69.33
2023-01-06T14:41:27.083Z,69.60
2023-01-06T14:43:58.535Z,69.85
2023-01-06T14:46:27.759Z,70.16
2023-01-06T14:49:12.985Z,70.36
2023-01-06T14:51:44.132Z,70.61
2023-01-06T14:54:33.612Z,70.74
2023-01-06T14:57:03.564Z,71.20
2023-01-06T14:59:30.716Z,71.40
2023-01-06T15:02:15.271Z,71.67
2023-01-06T15:04:44.088Z,71.79
2023-01-06T15:07:21.941Z,72.26
2023-01-06T15:09:50.926Z,72.59
2023-01-06T15:12:32.137Z,72.67
2023-01-06T15:15:21.561Z,72.95
2023-01-06T15:17:49.201Z,73.23
2023-01-06T15:20:16.522Z,73.58
2023-01-06T15:22:49.321Z,74.05
2023-01-06T15:25:22.678Z,74.34
2023-01-06T15:27:50.892Z,74.91
2023-01-06T15:30:20.018Z,75.16
2023-01-06T15:32:48.240Z,75.53
2023-01-06T15:35:20.509Z,75.84
2023-01-06T15:37:49.270Z,76.86
2023-01-06T15:40:21.801Z,77.00
2023-01-06T15:42:49.586Z,77.63
2023-01-06T15:45:25.792Z,77.65
2023-01-06T15:47:54.433Z,78.01
2023-01-06T15:50:25.650Z,78.54
2023-01-06T15:52:54.472Z,78.94
2023-01-06T15:55:31.973Z,79.83
2023-01-06T15:58:04.748Z,80.13
2023-01-06T16:00:36.648Z,80.45
2023-01-06T16:03:06.297Z,80.70
2023-01-06T16:05:35.330Z,81.09
2023-01-06T16:08:05.276Z,81.44
2023-01-06T16:10:38.256Z,81.62
2023-01-06T16:13:05.919Z,81.64
2023-01-06T16:15:46.157Z,82.15
2023-01-06T16:18:14.086Z,82.39
2023-01-06T16:20:41.271Z,82.71
2023-01-06T16:23:25.086Z,82.62
2023-01-06T16:26:04.629Z,82.70
2023-01-06T16:28:31.615Z,83.10
2023-01-06T16:31:07.114Z,83.42
2023-01-06T16:33:40.515Z,84.08
2023-01-06T16:36:17.691Z,84.33
2023-01-06T16:38:44.976Z,84.64
2023-01-06T16:41:19.506Z,85.01
2023-01-06T16:43:46.796Z,85.38
2023-01-06T16:46:20.370Z,85.22
2023-01-06T16:48:47.748Z,85.59
2023-01-06T16:51:19.866Z,86.15
2023-01-06T16:53:47.973Z,87.06
2023-01-06T16:56:22.782Z,87.19
2023-01-06T16:58:51.133Z,87.31
2023-01-06T17:01:21.635Z,87.32
2023-01-06T17:03:56.432Z,87.31
2023-01-06T17:06:26.866Z,88.17
2023-01-06T17:09:01.014Z,88.29
2023-01-06T17:11:31.054Z,88.32
2023-01-06T17:14:01.841Z,88.51
2023-01-06T17:16:33.741Z,88.40
2023-01-06T17:19:15.433Z,88.39
2023-01-06T17:21:42.402Z,89.08
2023-01-06T17:24:09.209Z,89.32
2023-01-06T17:26:36.505Z,89.41
2023-01-06T17:29:14.919Z,89.69
2023-01-06T17:31:44.869Z,89.50
2023-01-06T17:34:22.262Z,89.64
2023-01-06T17:36:55.816Z,89.29
2023-01-06T17:39:32.644Z,89.51
2023-01-06T17:42:05.538Z,89.73
2023-01-06T17:44:42.770Z,89.97
2023-01-06T17:47:29.933Z,89.40
2023-01-06T17:49:59.400Z,89.41
2023-01-06T17:52:41.740Z,89.18
2023-01-06T17:55:44.962Z,89.07
2023-01-06T17:58:17.878Z,89.32
2023-01-06T18:00:46.232Z,89.60
2023-01-06T18:03:33.606Z,89.99
2023-01-06T18:06:00.593Z,90.51
2023-01-06T18:08:31.186Z,90.68
2023-01-06T18:11:05.589Z,91.44
2023-01-06T18:13:35.891Z,91.29
2023-01-06T18:16:25.869Z,91.60
2023-01-06T18:18:53.104Z,92.12
2023-01-06T18:21:25.801Z,91.51
2023-01-06T18:23:53.279Z,91.91
2023-01-06T18:26:26.356Z,91.88
2023-01-06T18:28:59.360Z,92.10
2023-01-06T18:31:29.772Z,92.05
2023-01-06T18:33:56.910Z,92.03
2023-01-06T18:36:26.985Z,92.10
2023-01-06T18:38:56.662Z,92.25
2023-01-06T18:41:26.723Z,92.50
2023-01-06T18:43:54.531Z,92.99
2023-01-06T18:46:21.451Z,93.18
2023-01-06T18:48:48.432Z,93.20
2023-01-06T18:51:22.129Z,93.22
2023-01-06T18:53:50.880Z,92.36
2023-01-06T18:56:22.501Z,92.17
2023-01-06T18:58:58.740Z,92.95
2023-01-06T19:01:49.892Z,93.39
2023-01-06T19:04:31.519Z,92.97
2023-01-06T19:07:01.867Z,93.10
2023-01-06T19:09:36.548Z,93.40
2023-01-06T19:12:09.934Z,92.87
2023-01-06T19:14:40.759Z,92.56
2023-01-06T19:17:31.404Z,93.22
2023-01-06T19:20:01.644Z,94.52
2023-01-06T19:23:26.285Z,94.05
2023-01-06T19:26:30.389Z,94.78
2023-01-06T19:29:02.162Z,95.06
2023-01-06T19:31:30.724Z,95.75
2023-01-06T19:34:02.239Z,95.96
2023-01-06T19:36:35.066Z,96.72
2023-01-06T19:39:15.737Z,97.21
2023-01-06T19:41:42.921Z,96.53
2023-01-06T19:44:13.156Z,96.69
2023-01-06T19:46:42.969Z,97.05
2023-01-06T19:49:18.011Z,97.58
2023-01-06T19:51:46.505Z,98.03
2023-01-06T19:54:28.825Z,97.49
2023-01-06T19:56:57.956Z,96.87
2023-01-06T19:59:29.669Z,96.68
2023-01-06T20:02:21.049Z,95.71
2023-01-06T20:04:48.374Z,95.47
2023-01-06T20:07:15.346Z,95.04
2023-01-06T20:09:42.382Z,95.06
2023-01-06T20:12:13.202Z,95.73
2023-01-06T20:14:43.814Z,96.06
2023-01-06T20:17:39.151Z,95.92
2023-01-06T20:21:12.090Z,96.53
2023-01-06T20:24:05.286Z,97.29
2023-01-06T20:26:34.232Z,97.14
2023-01-06T20:29:03.680Z,97.26
2023-01-06T20:31:31.766Z,97.79
2023-01-06T20:34:00.235Z,97.96
2023-01-06T20:36:27.703Z,98.36
2023-01-06T20:38:54.760Z,98.84
2023-01-06T20:41:21.723Z,99.04
2023-01-06T20:43:49.191Z,98.88
2023-01-06T20:46:16.165Z,98.70
2023-01-06T20:48:43.149Z,99.11
2023-01-06T20:51:12.528Z,98.80
2023-01-06T20:53:39.615Z,98.62
2023-01-06T20:56:07.648Z,98.53
2023-01-06T20:58:36.089Z,98.49
2023-01-06T21:01:03.248Z,97.67
2023-01-06T21:03:31.348Z,97.79
2023-01-06T21:05:58.407Z,97.50
2023-01-06T21:08:25.253Z,97.06
2023-01-06T21:10:52.160Z,97.56
2023-01-06T21:13:18.989Z,97.83
2023-01-06T21:15:45.827Z,98.20
2023-01-06T21:18:12.755Z,98.05
2023-01-06T21:20:39.773Z,97.88
2023-01-06T21:23:06.697Z,97.54
2023-01-06T21:25:33.658Z,97.74
2023-01-06T21:28:00.600Z,98.67
2023-01-06T21:30:29.177Z,99.34
2023-01-06T21:32:56.137Z,99.25
2023-01-06T21:35:23.208Z,99.72
2023-01-06T21:37:50.061Z,100.00
2023-01-06T21:40:16.987Z,100.00
2023-01-06T21:43:02.464Z,100.00
2023-01-06T21:45:29.548Z,100.00
2023-01-06T21:47:56.467Z,99.86
2023-01-06T21:50:26.000Z,99.88
2023-01-06T21:52:54.112Z,99.80
2023-01-06T21:55:21.157Z,99.85
2023-01-06T21:57:51.183Z,100.00
2023-01-06T22:00:18.344Z,100.00
2023-01-06T22:02:46.838Z,100.00
2023-01-06T22:05:14.665Z,100.00
2023-01-06T22:07:45.866Z,99.65
2023-01-06T22:10:15.323Z,100.00
2023-01-06T22:12:47.577Z,100.00
2023-01-06T22:15:35.341Z,100.00
2023-01-06T22:18:03.212Z,99.71
2023-01-06T22:20:32.243Z,99.40
2023-01-06T22:23:02.412Z,99.13
2023-01-06T22:25:29.548Z,99.82
2023-01-06T22:27:58.745Z,99.92
2023-01-06T22:30:27.011Z,100.00
2023-01-06T22:32:54.003Z,100.00
2023-01-06T22:35:20.996Z,98.87
2023-01-06T22:37:48.043Z,98.02
2023-01-06T22:40:15.314Z,97.58
2023-01-06T22:42:43.005Z,97.57
2023-01-06T22:45:11.540Z,98.07
2023-01-06T22:47:38.929Z,98.13
2023-01-06T22:50:06.647Z,98.07
2023-01-06T22:52:33.695Z,97.92
2023-01-06T22:55:00.739Z,97.95
2023-01-06T22:57:27.657Z,98.03
2023-01-06T22:59:54.778Z,97.96
2023-01-06T23:02:22.049Z,98.29
2023-01-06T23:04:49.812Z,98.92
2023-01-06T23:07:16.911Z,99.20
2023-01-06T23:09:44.146Z,99.20
2023-01-06T23:12:11.317Z,98.74
2023-01-06T23:14:38.630Z,99.31
2023-01-06T23:17:05.537Z,99.24
2023-01-06T23:19:32.493Z,100.00
2023-01-06T23:21:59.588Z,100.00
2023-01-06T23:24:26.774Z,100.00
2023-01-06T23:26:53.824Z,100.00
2023-01-06T23:29:20.839Z,100.00
2023-01-06T23:31:47.836Z,100.00
2023-01-06T23:34:17.675Z,100.00
2023-01-06T23:36:45.103Z,100.00
2023-01-06T23:39:14.688Z,100.00
2023-01-06T23:41:41.866Z,100.00
2023-01-06T23:44:17.688Z,100.00
2023-01-06T23:46:45.854Z,100.00
2023-01-06T23:49:14.769Z,100.00
2023-01-06T23:51:41.984Z,100.00
2023-01-06T23:54:10.867Z,100.00
2023-01-06T23:56:38.479Z,100.00
2023-01-06T23:59:08.461Z,100.00
